METAR rapporten vliegvelden

   
EHVK - Volkel Rnlafb, Netherlands
Afstand tot: ZW 18 km
Gewijzigd: 14-10-2019 08:25
Mist, Bewolking  
Mist, Bewolking  
   Wind: Oosten 1.9 km/h
Wind: Oosten 1.9 km/h
Temperatuur: 10°C
Dauwpunt: 10°C
Vochtigheid: 100%
Barometer: 1013 hPa
Bewolking: Bewolking
Zicht: 0 km
Bewolking: Licht bewolkt,
Bewolking 21000 ft
EHVK 140625Z AUTO 10001KT 0300 R06L/0275N FG FEW000 OVC210 10/10 Q1013 RED VRB02KT 0500 MIFG OVC200 BECMG 1007KT CAVOK
EDLV - Niederrhein, Germany
Afstand tot: ZO 25 km
Gewijzigd: 14-10-2019 08:20
Nevel, Gedeeltelijk bewolkt  
Nevel, Gedeeltelijk bewolkt  
   Wind: Kalm
Wind: Kalm
Temperatuur: 12°C
Dauwpunt: 11°C
Vochtigheid: 94%
Barometer: 1013 hPa
Bewolking: Gedeeltelijk bewolkt
Zicht: 5 km
Bewolking: Gedeeltelijk bewolkt
EDLV 140620Z 00000KT 4500 BR NSC 12/11 Q1013
EHDL - Deelen Rnlafb, Netherlands
Afstand tot: N 35 km
Gewijzigd: 14-10-2019 08:25
Mist, Bewolking  
Mist, Bewolking  
   Wind: varieert 3.7 km/h
Wind: varieert 3.7 km/h
Temperatuur: 11°C
Dauwpunt: 11°C
Vochtigheid: 100%
Barometer: 1013 hPa
Bewolking: Bewolking
Zicht: 0 km
Bewolking: Bewolking
EHDL 140625Z AUTO VRB02KT 0250 FG OVC000 11/11 Q1013 RED
EHEH - Eindhoven Rnlafb, Netherlands
Afstand tot: ZW 48 km
Gewijzigd: 14-10-2019 08:39
Bewolking  
Bewolking  
   Wind: varieert 3.7 km/h
Wind: varieert 3.7 km/h
Temperatuur: 12°C
Dauwpunt: 12°C
Vochtigheid: 100%
Barometer: 1013 hPa
Bewolking: Bewolking
Zicht: meer dan 10 km
Bewolking: Bewolking 5600 ft
EHEH 140639Z AUTO VRB02KT 9999 OVC056 12/12 Q1013 BLU VRB02KT CAVOK BECMG 11004KT
EHGR - Gilze-Rijen Rnla, Netherlands
Afstand tot: WZW 70 km
Gewijzigd: 14-10-2019 08:35
Nevel, Bewolking  
Nevel, Bewolking  
   Wind: Noorden 1.9 km/h
Wind: Noorden 1.9 km/h
Temperatuur: 11°C
Dauwpunt: 11°C
Vochtigheid: 100%
Barometer: 1012 hPa
Bewolking: Bewolking
Zicht: 4 km
Bewolking: Licht bewolkt 5500 ft,
Grotendeels bewolkt 6200 ft,
Bewolking 13000 ft
EHGR 140635Z AUTO 36001KT 3800 BR FEW055 BKN062 OVC130 11/11 Q1012 GRN VRB03KT 4000 BR SCT055 BKN120
EBBL - Kleine-Brogel(Ba, Belgium
Afstand tot: ZZW 71 km
Gewijzigd: 14-10-2019 08:33
Grotendeels bewolkt  
Grotendeels bewolkt  
   Wind: varieert 1.9 km/h
Wind: varieert 1.9 km/h
Temperatuur: 11°C
Dauwpunt: 11°C
Vochtigheid: 100%
Barometer: 1013 hPa
Bewolking: Grotendeels bewolkt
Zicht: meer dan 10 km
Bewolking: Licht bewolkt 1500 ft,
Grotendeels bewolkt 6000 ft
EBBL 140633Z VRB01KT 9999 FEW015 BKN060 11/11 Q1013 BLU BLU

Script ontwikkeld door  Saratoga-weather.org Aangepast voor de template door  Weerstation Leuven